createdAt,value
2022-09-25T00:05:52.452Z,100
2022-09-25T00:12:03.098Z,100
2022-09-25T00:18:05.602Z,100
2022-09-25T00:24:16.283Z,100
2022-09-25T00:30:26.968Z,100
2022-09-25T00:36:37.562Z,100
2022-09-25T00:42:48.263Z,100
2022-09-25T00:48:58.922Z,100
2022-09-25T00:55:09.587Z,100
2022-09-25T01:01:20.368Z,100
2022-09-25T01:07:30.893Z,100
2022-09-25T01:14:47.524Z,100
2022-09-25T01:20:58.288Z,100
2022-09-25T01:27:08.844Z,100
2022-09-25T01:33:19.516Z,100
2022-09-25T01:39:30.193Z,100
2022-09-25T01:45:40.967Z,100
2022-09-25T01:51:51.493Z,100
2022-09-25T01:58:02.213Z,100
2022-09-25T02:04:12.951Z,100
2022-09-25T02:10:23.500Z,100
2022-09-25T02:16:26.082Z,100
2022-09-25T02:21:38.915Z,100
2022-09-25T02:27:49.567Z,100
2022-09-25T02:34:00.345Z,100
2022-09-25T02:40:11.024Z,100
2022-09-25T02:45:32.023Z,100
2022-09-25T02:51:42.722Z,100
2022-09-25T02:56:47.408Z,100
2022-09-25T03:02:58.104Z,100
2022-09-25T03:09:08.784Z,100
2022-09-25T03:16:25.430Z,100
2022-09-25T03:22:36.095Z,100
2022-09-25T03:27:48.957Z,100
2022-09-25T03:33:59.604Z,100
2022-09-25T03:40:10.317Z,100
2022-09-25T03:46:21.048Z,100
2022-09-25T03:52:39.776Z,100
2022-09-25T03:57:44.512Z,100
2022-09-25T04:03:55.190Z,100
2022-09-25T04:10:05.847Z,100
2022-09-25T04:16:08.617Z,100
2022-09-25T04:22:19.025Z,100
2022-09-25T04:28:29.653Z,100
2022-09-25T04:34:40.325Z,100
2022-09-25T04:40:51.062Z,100
2022-09-25T04:45:55.753Z,100
2022-09-25T04:51:16.824Z,100
2022-09-25T04:57:53.946Z,100
2022-09-25T05:03:38.273Z,100
2022-09-25T05:09:48.813Z,100
2022-09-25T05:15:59.781Z,100
2022-09-25T05:21:04.224Z,100
2022-09-25T05:27:14.889Z,100
2022-09-25T05:33:25.642Z,100
2022-09-25T05:39:36.204Z,100
2022-09-25T05:44:40.935Z,100
2022-09-25T05:50:51.638Z,100
2022-09-25T05:55:56.422Z,100
2022-09-25T06:01:09.331Z,100
2022-09-25T06:06:26.712Z,100
2022-09-25T06:12:32.841Z,100
2022-09-25T06:19:49.469Z,100
2022-09-25T06:27:14.269Z,100
2022-09-25T06:33:33.095Z,100
2022-09-25T06:41:00.084Z,100
2022-09-25T06:48:22.740Z,100
2022-09-25T06:54:33.471Z,100
2022-09-25T06:59:38.100Z,100
2022-09-25T07:05:48.780Z,100
2022-09-25T07:10:53.494Z,100
2022-09-25T07:16:55.973Z,100
2022-09-25T07:22:09.028Z,100
2022-09-25T07:28:19.543Z,100
2022-09-25T07:34:30.196Z,100
2022-09-25T07:40:40.920Z,100
2022-09-25T07:46:51.527Z,100
2022-09-25T07:53:02.207Z,100
2022-09-25T07:59:12.912Z,100
2022-09-25T08:05:23.546Z,100
2022-09-25T08:11:34.215Z,100
2022-09-25T08:17:44.979Z,100
2022-09-25T08:23:55.599Z,100
2022-09-25T08:31:12.208Z,100
2022-09-25T08:37:22.860Z,100
2022-09-25T08:43:33.496Z,100
2022-09-25T08:49:44.140Z,100
2022-09-25T08:55:54.847Z,100
2022-09-25T09:02:05.488Z,100
2022-09-25T09:08:16.148Z,100
2022-09-25T09:14:26.841Z,100
2022-09-25T09:20:37.476Z,100
2022-09-25T09:26:48.212Z,100
2022-09-25T09:32:50.705Z,100
2022-09-25T09:39:01.277Z,99.2
2022-09-25T09:45:11.962Z,94.1
2022-09-25T09:51:39.006Z,95.3
2022-09-25T09:57:49.717Z,97.8
2022-09-25T10:04:00.358Z,89.4
2022-09-25T10:10:11.030Z,84.6
2022-09-25T10:16:21.721Z,81.9
2022-09-25T10:22:32.338Z,81.4
2022-09-25T10:28:43.026Z,79.9
2022-09-25T10:34:45.523Z,79.9
2022-09-25T10:40:56.189Z,77.3
2022-09-25T10:47:06.850Z,81.1
2022-09-25T10:53:17.488Z,76.6
2022-09-25T10:59:28.183Z,71.3
2022-09-25T11:05:38.833Z,67.7
2022-09-25T11:11:49.509Z,67.7
2022-09-25T11:16:54.379Z,62.6
2022-09-25T11:23:04.911Z,65.2
2022-09-25T11:29:15.936Z,63.8
2022-09-25T11:35:18.065Z,61.9
2022-09-25T11:41:28.715Z,65.7
2022-09-25T11:47:39.366Z,62.2
2022-09-25T11:53:50.032Z,64.3
2022-09-25T12:00:00.693Z,67.4
2022-09-25T12:06:11.354Z,68.5
2022-09-25T12:12:22.016Z,67.6
2022-09-25T12:18:34.342Z,59
2022-09-25T12:23:45.605Z,55.4
2022-09-25T12:29:56.273Z,56.8
2022-09-25T12:35:58.765Z,57.6
2022-09-25T12:42:09.424Z,57.6
2022-09-25T12:48:20.095Z,61.8
2022-09-25T12:54:30.761Z,58.4
2022-09-25T13:00:41.425Z,60
2022-09-25T13:06:52.089Z,57.7
2022-09-25T13:13:02.868Z,61.4
2022-09-25T13:19:13.414Z,56.4
2022-09-25T13:25:24.071Z,53.8
2022-09-25T13:31:26.647Z,58.8
2022-09-25T13:37:37.211Z,58.6
2022-09-25T13:43:47.896Z,59.4
2022-09-25T13:49:58.563Z,57.7
2022-09-25T13:56:09.210Z,56.4
2022-09-25T14:02:19.921Z,57.9
2022-09-25T14:08:30.608Z,58.6
2022-09-25T14:14:41.295Z,58.1
2022-09-25T14:20:51.880Z,54.7
2022-09-25T14:27:02.670Z,57.8
2022-09-25T14:34:19.163Z,58
2022-09-25T14:40:29.894Z,59.3
2022-09-25T14:46:40.500Z,60.4
2022-09-25T14:51:53.425Z,57.9
2022-09-25T14:58:04.099Z,60
2022-09-25T15:04:14.762Z,60.1
2022-09-25T15:10:25.436Z,58.7
2022-09-25T15:16:36.254Z,61.6
2022-09-25T15:22:46.869Z,61.6
2022-09-25T15:27:59.650Z,64
2022-09-25T15:34:02.146Z,62.7
2022-09-25T15:40:13.010Z,62.7
2022-09-25T15:46:23.534Z,62.7
2022-09-25T15:52:34.152Z,68
2022-09-25T15:58:44.837Z,65.6
2022-09-25T16:04:55.491Z,62.4
2022-09-25T16:11:06.277Z,67.6
2022-09-25T16:18:32.485Z,66
2022-09-25T16:24:41.619Z,69.8
2022-09-25T16:30:52.347Z,70.4
2022-09-25T16:36:54.791Z,71.8
2022-09-25T16:43:05.461Z,71.3
2022-09-25T16:49:16.059Z,73.1
2022-09-25T16:55:26.770Z,74.4
2022-09-25T17:01:37.550Z,75.9
2022-09-25T17:07:48.065Z,78
2022-09-25T17:13:58.849Z,77.1
2022-09-25T17:20:09.579Z,77.8
2022-09-25T17:25:22.319Z,78.5
2022-09-25T17:31:33.068Z,79.7
2022-09-25T17:38:49.638Z,79.7
2022-09-25T17:46:14.454Z,82.8
2022-09-25T17:53:39.250Z,83.9
2022-09-25T17:59:58.064Z,85.5
2022-09-25T18:07:22.878Z,86.6
2022-09-25T18:14:47.691Z,86.6
2022-09-25T18:20:58.401Z,87.4
2022-09-25T18:26:03.069Z,87.6
2022-09-25T18:32:13.762Z,86.8
2022-09-25T18:38:16.226Z,86.8
2022-09-25T18:44:26.867Z,87.5
2022-09-25T18:50:37.557Z,88.8
2022-09-25T18:56:48.176Z,89.2
2022-09-25T19:02:59.036Z,90
2022-09-25T19:09:15.461Z,91.2
2022-09-25T19:15:20.185Z,92.9
2022-09-25T19:21:30.849Z,95.3
2022-09-25T19:27:41.646Z,96.6
2022-09-25T19:34:58.152Z,98
2022-09-25T19:41:08.824Z,98.6
2022-09-25T19:47:19.599Z,98.4
2022-09-25T19:52:40.581Z,100
2022-09-25T19:58:51.289Z,100
2022-09-25T20:05:02.025Z,99.7
2022-09-25T20:11:12.586Z,100
2022-09-25T20:17:23.249Z,100
2022-09-25T20:23:33.923Z,100
2022-09-25T20:29:44.572Z,100
2022-09-25T20:35:55.260Z,100
2022-09-25T20:41:57.759Z,100
2022-09-25T20:48:08.402Z,100
2022-09-25T20:54:19.034Z,100
2022-09-25T21:00:29.740Z,100
2022-09-25T21:06:40.366Z,100
2022-09-25T21:12:51.037Z,100
2022-09-25T21:19:01.764Z,100
2022-09-25T21:25:12.357Z,100
2022-09-25T21:31:23.147Z,100
2022-09-25T21:37:25.554Z,100
2022-09-25T21:43:36.172Z,100
2022-09-25T21:49:46.836Z,100
2022-09-25T21:55:57.542Z,100
2022-09-25T22:02:08.186Z,100
2022-09-25T22:08:18.851Z,100
2022-09-25T22:14:29.539Z,100
2022-09-25T22:20:56.582Z,100
2022-09-25T22:27:07.231Z,100
2022-09-25T22:33:17.976Z,100
2022-09-25T22:39:20.371Z,100
2022-09-25T22:45:31.022Z,100
2022-09-25T22:51:41.747Z,100
2022-09-25T22:57:52.385Z,100
2022-09-25T23:04:03.037Z,100
2022-09-25T23:10:13.745Z,100
2022-09-25T23:16:32.626Z,100
2022-09-25T23:23:57.342Z,100
2022-09-25T23:31:22.256Z,100
2022-09-25T23:37:32.895Z,100
2022-09-25T23:42:37.559Z,100
2022-09-25T23:48:48.277Z,100
2022-09-25T23:54:58.889Z,100
